createdAt,value
2018-11-22T06:18:06.490Z,3
2018-11-22T06:23:37.709Z,7
2018-11-22T06:26:37.931Z,10
2018-11-22T06:29:07.304Z,13
2018-11-22T06:30:07.391Z,17
2018-11-22T06:31:38.374Z,20
2018-11-22T06:32:07.545Z,23
2018-11-22T06:34:07.709Z,27
2018-11-22T06:35:07.732Z,30
2018-11-22T06:35:37.759Z,33
2018-11-22T06:37:07.871Z,37
2018-11-22T06:37:38.791Z,40
2018-11-22T06:38:07.933Z,43
2018-11-22T06:38:38.845Z,47
2018-11-22T06:39:08.027Z,53
2018-11-22T06:40:08.090Z,60
2018-11-22T06:40:38.989Z,63
2018-11-22T06:41:08.139Z,73
2018-11-22T06:41:39.077Z,80
2018-11-22T06:43:08.334Z,73
2018-11-22T06:43:39.168Z,77
2018-11-22T06:44:08.404Z,80
2018-11-22T06:44:39.275Z,87
2018-11-22T06:45:08.492Z,93
2018-11-22T06:45:39.310Z,97
2018-11-22T06:46:08.530Z,103
2018-11-22T06:46:39.457Z,107
2018-11-22T06:47:08.598Z,110
2018-11-22T06:48:08.661Z,117
2018-11-22T06:48:39.548Z,120
2018-11-22T06:49:08.731Z,123
2018-11-22T06:49:39.607Z,140
2018-11-22T06:51:08.906Z,150
2018-11-22T06:51:39.964Z,157
2018-11-22T06:52:08.914Z,167
2018-11-22T06:52:39.814Z,177
2018-11-22T06:53:39.889Z,173
2018-11-22T06:54:09.084Z,187
2018-11-22T06:54:39.953Z,197
2018-11-22T06:55:09.157Z,203
2018-11-22T06:55:40.613Z,207
2018-11-22T06:56:09.249Z,203
2018-11-22T06:56:40.158Z,207
2018-11-22T06:57:09.365Z,240
2018-11-22T06:57:40.224Z,260
2018-11-22T06:58:40.346Z,247
2018-11-22T06:59:09.513Z,227
2018-11-22T06:59:40.396Z,230
2018-11-22T07:00:09.584Z,257
2018-11-22T07:00:40.463Z,263
2018-11-22T07:01:09.723Z,273
2018-11-22T07:01:40.545Z,283
2018-11-22T07:02:40.642Z,293
2018-11-22T07:03:09.865Z,307
2018-11-22T07:03:40.728Z,337
2018-11-22T07:04:09.923Z,340
2018-11-22T07:04:40.786Z,333
2018-11-22T07:05:09.986Z,330
2018-11-22T07:05:40.851Z,357
2018-11-22T07:06:10.021Z,413
2018-11-22T07:06:40.920Z,397
2018-11-22T07:07:10.169Z,400
2018-11-22T07:07:40.973Z,417
2018-11-22T07:08:10.183Z,413
2018-11-22T07:08:41.083Z,403
2018-11-22T07:09:10.251Z,427
2018-11-22T07:09:41.140Z,437
2018-11-22T07:10:10.312Z,470
2018-11-22T07:10:41.244Z,477
2018-11-22T07:11:10.422Z,463
2018-11-22T07:11:41.835Z,460
2018-11-22T07:12:10.498Z,437
2018-11-22T07:12:41.350Z,463
2018-11-22T07:13:11.935Z,517
2018-11-22T07:13:41.450Z,527
2018-11-22T07:14:10.640Z,510
2018-11-22T07:14:41.527Z,547
2018-11-22T07:15:10.684Z,550
2018-11-22T07:15:41.597Z,523
2018-11-22T07:16:10.752Z,550
2018-11-22T07:16:41.645Z,560
2018-11-22T07:17:10.835Z,540
2018-11-22T07:18:10.891Z,533
2018-11-22T07:18:41.768Z,543
2018-11-22T07:19:11.026Z,530
2018-11-22T07:19:41.890Z,553
2018-11-22T07:20:11.046Z,583
2018-11-22T07:20:41.962Z,610
2018-11-22T07:21:42.061Z,640
2018-11-22T07:22:11.196Z,647
2018-11-22T07:22:42.076Z,637
2018-11-22T07:23:11.246Z,650
2018-11-22T07:23:42.156Z,657
2018-11-22T07:24:11.374Z,640
2018-11-22T07:24:42.218Z,657
2018-11-22T07:25:11.406Z,670
2018-11-22T07:25:42.431Z,717
2018-11-22T07:26:11.536Z,740
2018-11-22T07:26:42.489Z,720
2018-11-22T07:27:11.593Z,707
2018-11-22T07:27:42.478Z,703
2018-11-22T07:28:12.048Z,770
2018-11-22T07:29:11.775Z,770
2018-11-22T07:29:42.597Z,760
2018-11-22T07:30:11.803Z,787
2018-11-22T07:30:42.669Z,770
2018-11-22T07:31:11.855Z,760
2018-11-22T07:31:42.732Z,727
2018-11-22T07:32:11.928Z,747
2018-11-22T07:32:42.844Z,823
2018-11-22T07:33:12.068Z,887
2018-11-22T07:33:42.924Z,920
2018-11-22T07:34:12.123Z,937
2018-11-22T07:34:42.953Z,1017
2018-11-22T07:35:12.173Z,1053
2018-11-22T07:35:43.024Z,997
2018-11-22T07:36:12.227Z,1020
2018-11-22T07:36:43.162Z,1027
2018-11-22T07:37:12.320Z,1007
2018-11-22T07:37:43.241Z,1027
2018-11-22T07:38:12.434Z,1023
2018-11-22T07:38:43.309Z,1047
2018-11-22T07:39:12.502Z,1017
2018-11-22T07:39:43.372Z,957
2018-11-22T07:40:12.566Z,1040
2018-11-22T07:40:43.435Z,993
2018-11-22T07:41:12.625Z,880
2018-11-22T07:41:44.500Z,920
2018-11-22T07:42:12.673Z,967
2018-11-22T07:42:43.645Z,1033
2018-11-22T07:43:12.786Z,1023
2018-11-22T07:43:43.638Z,1067
2018-11-22T07:44:12.902Z,1100
2018-11-22T07:44:43.740Z,1127
2018-11-22T07:45:12.961Z,1223
2018-11-22T07:45:43.801Z,1230
2018-11-22T07:46:13.021Z,1220
2018-11-22T07:46:43.852Z,1193
2018-11-22T07:47:13.090Z,1203
2018-11-22T07:47:43.926Z,1240
2018-11-22T07:48:13.164Z,1233
2018-11-22T07:48:44.032Z,1320
2018-11-22T07:49:13.224Z,1387
2018-11-22T07:50:13.296Z,1327
2018-11-22T07:50:44.194Z,1307
2018-11-22T07:51:13.360Z,1313
2018-11-22T07:51:44.235Z,1280
2018-11-22T07:52:13.444Z,1257
2018-11-22T07:52:44.337Z,1303
2018-11-22T07:53:13.509Z,1437
2018-11-22T07:53:44.385Z,1350
2018-11-22T07:54:13.566Z,1290
2018-11-22T07:54:44.464Z,1203
2018-11-22T07:55:13.625Z,1207
2018-11-22T07:55:44.533Z,1230
2018-11-22T07:56:13.702Z,1240
2018-11-22T07:56:44.605Z,1290
2018-11-22T07:57:13.792Z,1310
2018-11-22T07:57:44.676Z,1420
2018-11-22T07:58:13.840Z,1363
2018-11-22T07:58:44.713Z,1377
2018-11-22T07:59:13.943Z,1467
2018-11-22T07:59:44.809Z,1583
2018-11-22T08:00:13.995Z,1587
2018-11-22T08:00:44.879Z,1483
2018-11-22T08:01:14.035Z,1310
2018-11-22T08:01:44.943Z,1217
2018-11-22T08:02:14.103Z,1190
2018-11-22T08:02:44.990Z,1307
2018-11-22T08:03:14.177Z,1560
2018-11-22T08:04:14.263Z,1493
2018-11-22T08:04:45.141Z,1537
2018-11-22T08:05:14.362Z,1667
2018-11-22T08:05:45.245Z,1723
2018-11-22T08:06:14.430Z,1750
2018-11-22T08:06:45.279Z,1787
2018-11-22T08:07:14.449Z,1720
2018-11-22T08:07:45.324Z,1723
2018-11-22T08:08:14.563Z,1790
2018-11-22T08:08:45.488Z,1993
2018-11-22T08:09:14.616Z,1970
2018-11-22T08:09:45.467Z,1900
2018-11-22T08:10:14.693Z,1853
2018-11-22T08:10:45.574Z,1920
2018-11-22T08:11:14.804Z,1737
2018-11-22T08:11:45.641Z,1620
2018-11-22T08:12:14.825Z,1673
2018-11-22T08:12:45.751Z,1703
2018-11-22T08:13:14.940Z,2077
2018-11-22T08:13:45.887Z,2227
2018-11-22T08:14:15.005Z,2250
2018-11-22T08:14:45.866Z,2077
2018-11-22T08:15:15.081Z,1943
2018-11-22T08:15:45.939Z,2007
2018-11-22T08:16:15.147Z,2030
2018-11-22T08:16:46.007Z,2053
2018-11-22T08:17:15.211Z,2060
2018-11-22T08:17:46.045Z,1997
2018-11-22T08:18:15.287Z,2113
2018-11-22T08:18:46.197Z,2270
2018-11-22T08:19:15.343Z,2273
2018-11-22T08:19:46.219Z,2230
2018-11-22T08:20:15.405Z,2123
2018-11-22T08:20:46.275Z,2000
2018-11-22T08:21:15.527Z,1903
2018-11-22T08:21:46.358Z,1817
2018-11-22T08:22:15.601Z,2147
2018-11-22T08:22:46.415Z,2497
2018-11-22T08:23:15.698Z,2833
2018-11-22T08:23:46.503Z,3060
2018-11-22T08:24:15.714Z,3107
2018-11-22T08:24:46.592Z,2870
2018-11-22T08:25:15.744Z,2960
2018-11-22T08:25:46.652Z,2813
2018-11-22T08:26:02.446Z,2717
2018-11-22T08:26:31.636Z,2560
2018-11-22T08:27:02.571Z,2390
2018-11-22T08:27:33.256Z,2617
2018-11-22T08:28:03.714Z,2730
2018-11-22T08:28:33.689Z,2697
2018-11-22T08:29:04.675Z,2763
2018-11-22T08:29:34.674Z,3247
2018-11-22T08:30:05.707Z,3470
2018-11-22T08:30:35.671Z,3417
2018-11-22T08:31:06.692Z,3077
2018-11-22T08:31:36.697Z,2827
2018-11-22T08:32:07.663Z,3077
2018-11-22T08:32:37.647Z,3293
2018-11-22T08:33:08.676Z,3393
2018-11-22T08:33:38.667Z,3227
2018-11-22T08:34:09.679Z,3267
2018-11-22T08:34:39.710Z,2980
2018-11-22T08:35:10.673Z,2947
2018-11-22T08:35:40.689Z,2950
2018-11-22T08:36:11.730Z,3057
2018-11-22T08:36:41.643Z,3207
2018-11-22T08:37:12.660Z,3360
2018-11-22T08:37:42.668Z,3230
2018-11-22T08:38:13.631Z,3257
2018-11-22T08:38:43.670Z,3217
2018-11-22T08:39:14.625Z,3093
2018-11-22T08:39:44.773Z,3007
2018-11-22T08:40:15.645Z,3047
2018-11-22T08:40:45.637Z,3020
2018-11-22T08:41:16.620Z,3197
2018-11-22T08:42:17.618Z,3077
2018-11-22T08:42:47.597Z,3323
2018-11-22T08:43:18.612Z,3393
2018-11-22T08:43:48.679Z,3467
2018-11-22T08:44:19.653Z,2957
2018-11-22T08:44:49.606Z,2937
2018-11-22T08:45:20.584Z,3087
2018-11-22T08:45:50.593Z,3240
2018-11-22T08:46:21.592Z,3447
2018-11-22T08:46:51.600Z,3523
2018-11-22T08:47:22.594Z,3173
2018-11-22T08:47:52.562Z,2917
2018-11-22T08:48:23.417Z,2927
2018-11-22T08:48:53.426Z,3230
2018-11-22T08:49:24.375Z,3200
2018-11-22T08:49:54.410Z,3173
2018-11-22T08:50:25.367Z,3373
2018-11-22T08:50:55.363Z,3413
2018-11-22T08:51:26.356Z,3223
2018-11-22T08:51:56.334Z,3033
2018-11-22T08:52:27.342Z,3123
2018-11-22T08:52:57.362Z,3093
2018-11-22T08:53:28.412Z,3087
2018-11-22T08:53:58.365Z,3070
2018-11-22T08:54:29.328Z,2903
2018-11-22T08:54:59.309Z,2787
2018-11-22T08:55:30.301Z,2933
2018-11-22T08:56:00.989Z,2893
2018-11-22T08:56:31.324Z,3047
2018-11-22T08:57:00.638Z,3183
2018-11-22T08:57:31.408Z,3327
2018-11-22T08:58:00.633Z,3447
2018-11-22T08:58:31.530Z,4370
2018-11-22T08:59:00.741Z,4687
2018-11-22T08:59:31.597Z,4657
2018-11-22T09:00:01.015Z,4257
2018-11-22T09:00:31.684Z,3733
2018-11-22T09:01:00.737Z,3753
2018-11-22T09:01:31.734Z,3677
2018-11-22T09:02:00.943Z,3293
2018-11-22T09:02:31.827Z,3193
2018-11-22T09:03:00.930Z,3453
2018-11-22T09:03:32.656Z,3643
2018-11-22T09:04:01.054Z,3383
2018-11-22T09:05:01.149Z,3443
2018-11-22T09:05:32.090Z,3413
2018-11-22T09:06:01.225Z,3477
2018-11-22T09:06:32.183Z,3843
2018-11-22T09:07:01.298Z,3763
2018-11-22T09:07:32.347Z,3987
2018-11-22T09:08:01.386Z,3383
2018-11-22T09:08:32.408Z,3337
2018-11-22T09:09:01.744Z,3527
2018-11-22T09:09:32.453Z,3713
2018-11-22T09:10:02.342Z,3827
2018-11-22T09:10:32.542Z,3570
2018-11-22T09:11:01.686Z,4223
2018-11-22T09:11:32.656Z,4180
2018-11-22T09:12:01.725Z,4037
2018-11-22T09:12:32.728Z,4110
2018-11-22T09:13:01.832Z,4480
2018-11-22T09:13:32.785Z,4630
2018-11-22T09:14:01.958Z,4923
2018-11-22T09:14:32.885Z,4690
2018-11-22T09:15:01.983Z,5057
2018-11-22T09:15:33.015Z,4693
2018-11-22T09:16:02.045Z,4760
2018-11-22T09:16:33.056Z,4367
2018-11-22T09:17:02.165Z,4400
2018-11-22T09:17:33.137Z,4340
2018-11-22T09:18:02.243Z,5107
2018-11-22T09:18:33.309Z,5640
2018-11-22T09:19:02.364Z,5330
2018-11-22T09:19:33.305Z,5293
2018-11-22T09:20:02.366Z,5290
2018-11-22T09:20:33.391Z,5530
2018-11-22T09:21:02.528Z,5233
2018-11-22T09:21:33.483Z,5137
2018-11-22T09:22:02.598Z,6117
2018-11-22T09:22:33.549Z,5767
2018-11-22T09:23:02.679Z,5563
2018-11-22T09:23:38.449Z,5373
2018-11-22T09:24:02.810Z,5327
2018-11-22T09:24:33.725Z,5583
2018-11-22T09:25:02.810Z,5223
2018-11-22T09:25:33.803Z,4993
2018-11-22T09:26:02.924Z,5380
2018-11-22T09:26:33.878Z,5293
2018-11-22T09:27:02.940Z,4913
2018-11-22T09:27:34.047Z,4907
2018-11-22T09:28:03.176Z,5403
2018-11-22T09:28:34.110Z,5780
2018-11-22T09:29:03.232Z,5130
2018-11-22T09:29:39.382Z,4687
2018-11-22T09:30:03.288Z,4860
2018-11-22T09:30:34.272Z,4903
2018-11-22T09:31:03.328Z,5787
2018-11-22T09:31:34.349Z,5573
2018-11-22T09:32:03.470Z,5443
2018-11-22T09:32:34.418Z,6257
2018-11-22T09:33:03.485Z,5537
2018-11-22T09:33:34.525Z,5523
2018-11-22T09:34:03.561Z,5483
2018-11-22T09:34:34.555Z,4723
2018-11-22T09:35:04.166Z,5067
2018-11-22T09:35:34.720Z,5587
2018-11-22T09:36:03.828Z,5997
2018-11-22T09:36:34.909Z,5367
2018-11-22T09:37:04.025Z,4863
2018-11-22T09:37:34.982Z,5717
2018-11-22T09:38:04.102Z,5027
2018-11-22T09:38:35.097Z,4713
2018-11-22T09:39:04.167Z,5760
2018-11-22T09:39:35.196Z,5887
2018-11-22T09:40:04.241Z,5500
2018-11-22T09:40:35.309Z,6310
2018-11-22T09:41:04.469Z,7267
2018-11-22T09:41:35.445Z,6927
2018-11-22T09:42:05.437Z,5550
2018-11-22T09:42:35.520Z,5620
2018-11-22T09:43:05.453Z,5537
2018-11-22T09:43:35.465Z,5557
2018-11-22T09:44:05.478Z,5620
2018-11-22T09:44:35.560Z,6330
2018-11-22T09:45:05.543Z,6220
2018-11-22T09:45:35.581Z,6607
2018-11-22T09:46:05.641Z,6730
2018-11-22T09:46:35.644Z,6883
2018-11-22T09:47:05.693Z,7083
2018-11-22T09:47:35.645Z,7130
2018-11-22T09:48:05.650Z,6197
2018-11-22T09:48:35.785Z,6350
2018-11-22T09:49:05.731Z,6830
2018-11-22T09:49:35.792Z,6460
2018-11-22T09:50:05.789Z,8227
2018-11-22T09:50:36.081Z,8687
2018-11-22T09:51:05.801Z,7920
2018-11-22T09:51:35.858Z,7500
2018-11-22T09:52:05.834Z,7830
2018-11-22T09:52:35.908Z,7673
2018-11-22T09:53:05.882Z,7487
2018-11-22T09:53:35.955Z,7883
2018-11-22T09:54:05.933Z,8073
2018-11-22T09:54:35.966Z,8177
2018-11-22T09:55:05.971Z,8850
2018-11-22T09:55:35.997Z,7643
2018-11-22T09:56:05.991Z,7817
2018-11-22T09:56:36.010Z,7383
2018-11-22T09:57:06.024Z,7187
2018-11-22T09:57:36.018Z,7260
2018-11-22T09:58:06.094Z,7253
2018-11-22T09:58:36.061Z,7227
2018-11-22T09:59:06.152Z,7823
2018-11-22T09:59:36.110Z,7880
2018-11-22T10:00:06.124Z,7893
2018-11-22T10:00:36.179Z,7193
2018-11-22T10:01:06.161Z,7257
2018-11-22T10:01:36.243Z,7893
2018-11-22T10:02:06.212Z,7503
2018-11-22T10:02:36.277Z,7333
2018-11-22T10:03:06.287Z,7943
2018-11-22T10:03:36.239Z,7380
2018-11-22T10:04:06.312Z,7420
2018-11-22T10:04:36.382Z,7623
2018-11-22T10:05:06.440Z,7940
2018-11-22T10:05:36.447Z,8263
2018-11-22T10:06:06.360Z,7837
2018-11-22T10:06:36.370Z,8267
2018-11-22T10:07:06.412Z,8937
2018-11-22T10:07:36.432Z,11327
2018-11-22T10:08:06.399Z,9533
2018-11-22T10:08:36.528Z,8557
2018-11-22T10:09:06.523Z,9397
2018-11-22T10:09:36.542Z,10710
2018-11-22T10:10:06.607Z,9787
2018-11-22T10:10:36.608Z,9803
2018-11-22T10:11:06.620Z,9490
2018-11-22T10:11:36.698Z,10033
2018-11-22T10:12:06.708Z,12103
2018-11-22T10:12:36.764Z,12050
2018-11-22T10:13:06.734Z,11147
2018-11-22T10:13:36.734Z,11373
2018-11-22T10:14:06.772Z,10477
2018-11-22T10:14:36.817Z,10157
2018-11-22T10:15:06.782Z,10247
2018-11-22T10:15:36.781Z,8753
2018-11-22T10:16:06.846Z,7793
2018-11-22T10:16:36.861Z,7803
2018-11-22T10:17:06.959Z,8710
2018-11-22T10:17:36.871Z,8930
2018-11-22T10:18:06.931Z,8047
2018-11-22T10:18:36.965Z,7957
2018-11-22T10:19:06.984Z,8480
2018-11-22T10:19:37.039Z,8803
2018-11-22T10:20:06.991Z,8250
2018-11-22T10:20:37.127Z,7953
2018-11-22T10:21:07.070Z,9387
2018-11-22T10:21:37.104Z,9150
2018-11-22T10:22:07.076Z,8613
2018-11-22T10:22:37.177Z,8723
2018-11-22T10:23:07.129Z,8973
2018-11-22T10:23:37.233Z,9573
2018-11-22T10:24:07.179Z,8937
2018-11-22T10:24:37.223Z,7763
2018-11-22T10:25:07.193Z,7290
2018-11-22T10:25:37.230Z,7607
2018-11-22T10:26:07.250Z,8767
2018-11-22T10:26:37.235Z,9273
2018-11-22T10:27:07.283Z,7853
2018-11-22T10:27:37.313Z,7627
2018-11-22T10:28:07.343Z,7203
2018-11-22T10:28:37.323Z,6907
2018-11-22T10:29:07.417Z,6913
2018-11-22T10:29:37.436Z,7633
2018-11-22T10:30:07.442Z,6800
2018-11-22T10:30:37.464Z,6393
2018-11-22T10:31:07.459Z,6060
2018-11-22T10:31:37.594Z,6827
2018-11-22T10:32:07.475Z,7367
2018-11-22T10:32:37.554Z,7083
2018-11-22T10:33:07.492Z,6790
2018-11-22T10:33:37.525Z,6650
2018-11-22T10:34:07.544Z,7077
2018-11-22T10:34:37.549Z,8203
2018-11-22T10:35:37.784Z,8683
2018-11-22T10:36:07.696Z,7853
2018-11-22T10:36:37.714Z,7110
2018-11-22T10:37:07.682Z,6380
2018-11-22T10:37:37.739Z,6913
2018-11-22T10:38:07.784Z,7123
2018-11-22T10:38:37.768Z,6540
2018-11-22T10:39:07.829Z,7533
2018-11-22T10:39:37.960Z,7483
2018-11-22T10:40:07.798Z,6643
2018-11-22T10:40:37.831Z,6363
2018-11-22T10:41:07.868Z,6457
2018-11-22T10:41:37.901Z,6273
2018-11-22T10:42:07.888Z,6147
2018-11-22T10:42:37.980Z,6243
2018-11-22T10:43:37.948Z,5753
2018-11-22T10:44:07.981Z,5917
2018-11-22T10:44:38.008Z,6603
2018-11-22T10:45:08.037Z,6190
2018-11-22T10:45:38.061Z,5860
2018-11-22T10:46:08.053Z,6343
2018-11-22T10:46:38.113Z,7893
2018-11-22T10:47:08.096Z,6953
2018-11-22T10:47:38.113Z,5820
2018-11-22T10:48:08.169Z,5447
2018-11-22T10:48:38.218Z,6587
2018-11-22T10:49:08.164Z,7110
2018-11-22T10:49:38.212Z,6757
2018-11-22T10:50:08.194Z,6820
2018-11-22T10:50:38.333Z,5973
2018-11-22T10:51:08.257Z,5333
2018-11-22T10:51:38.359Z,5627
2018-11-22T10:52:08.321Z,5443
2018-11-22T10:52:38.309Z,5530
2018-11-22T10:53:08.315Z,5523
2018-11-22T10:53:38.394Z,4900
2018-11-22T10:54:08.417Z,4850
2018-11-22T10:54:38.443Z,5037
2018-11-22T10:55:08.436Z,5443
2018-11-22T10:55:38.510Z,5550
2018-11-22T10:56:08.521Z,5897
2018-11-22T10:56:38.517Z,5867
2018-11-22T10:57:08.550Z,5690
2018-11-22T10:57:38.612Z,6187
2018-11-22T10:58:08.620Z,6383
2018-11-22T10:58:38.650Z,6050
2018-11-22T10:59:08.662Z,6283
2018-11-22T10:59:38.691Z,6150
2018-11-22T11:00:08.654Z,6187
2018-11-22T11:00:38.710Z,6313
2018-11-22T11:01:08.666Z,6430
2018-11-22T11:01:38.796Z,6020
2018-11-22T11:02:08.741Z,5583
2018-11-22T11:02:38.793Z,5183
2018-11-22T11:03:08.778Z,5443
2018-11-22T11:03:38.820Z,5817
2018-11-22T11:04:08.805Z,5890
2018-11-22T11:04:38.873Z,5420
2018-11-22T11:05:08.882Z,4953
2018-11-22T11:05:39.962Z,5253
2018-11-22T11:06:09.872Z,5760
2018-11-22T11:06:39.965Z,5650
2018-11-22T11:07:09.899Z,5923
2018-11-22T11:07:40.011Z,6050
2018-11-22T11:08:09.947Z,6250
2018-11-22T11:08:39.978Z,6630
2018-11-22T11:09:10.002Z,6510
2018-11-22T11:09:40.019Z,6533
2018-11-22T11:10:10.071Z,6187
2018-11-22T11:10:40.034Z,6430
2018-11-22T11:11:10.096Z,6590
2018-11-22T11:11:40.539Z,6247
2018-11-22T11:12:10.104Z,5353
2018-11-22T11:12:40.167Z,4993
2018-11-22T11:13:10.181Z,5650
2018-11-22T11:13:40.202Z,5637
2018-11-22T11:14:10.195Z,5570
2018-11-22T11:14:40.244Z,5230
2018-11-22T11:15:10.225Z,5710
2018-11-22T11:15:40.314Z,5780
2018-11-22T11:16:10.280Z,5183
2018-11-22T11:16:40.306Z,4933
2018-11-22T11:17:10.308Z,5063
2018-11-22T11:17:41.345Z,5587
2018-11-22T11:18:11.397Z,6517
2018-11-22T11:18:41.375Z,6870
2018-11-22T11:19:11.392Z,6167
2018-11-22T11:19:41.397Z,5440
2018-11-22T11:20:11.412Z,5277
2018-11-22T11:20:41.510Z,5510
2018-11-22T11:21:11.461Z,4970
2018-11-22T11:21:41.576Z,4973
2018-11-22T11:22:11.505Z,6047
2018-11-22T11:22:41.559Z,5987
2018-11-22T11:23:11.615Z,5473
2018-11-22T11:23:41.543Z,5487
2018-11-22T11:24:11.597Z,5213
2018-11-22T11:24:42.840Z,4923
2018-11-22T11:25:11.623Z,4783
2018-11-22T11:25:41.637Z,4747
2018-11-22T11:26:11.686Z,4913
2018-11-22T11:26:42.000Z,4530
2018-11-22T11:27:11.709Z,4407
2018-11-22T11:27:41.720Z,4583
2018-11-22T11:28:11.826Z,4757
2018-11-22T11:28:41.785Z,4700
2018-11-22T11:29:12.682Z,4920
2018-11-22T11:29:41.794Z,5833
2018-11-22T11:30:11.881Z,5950
2018-11-22T11:30:41.988Z,5843
2018-11-22T11:31:11.889Z,5353
2018-11-22T11:31:41.958Z,4940
2018-11-22T11:32:11.913Z,4483
2018-11-22T11:32:41.991Z,5010
2018-11-22T11:33:11.998Z,4693
2018-11-22T11:33:42.023Z,4787
2018-11-22T11:34:12.088Z,4817
2018-11-22T11:34:42.160Z,4973
2018-11-22T11:35:12.208Z,4787
2018-11-22T11:35:42.267Z,4763
2018-11-22T11:36:17.756Z,4900
2018-11-22T11:36:42.213Z,4877
2018-11-22T11:37:12.221Z,4793
2018-11-22T11:37:42.284Z,4610
2018-11-22T11:38:12.298Z,4500
2018-11-22T11:38:42.366Z,4757
2018-11-22T11:39:12.399Z,4763
2018-11-22T11:39:42.439Z,4743
2018-11-22T11:40:12.427Z,5000
2018-11-22T11:40:42.437Z,4960
2018-11-22T11:41:12.494Z,4763
2018-11-22T11:41:43.596Z,4493
2018-11-22T11:42:13.511Z,4190
2018-11-22T11:42:43.535Z,4213
2018-11-22T11:43:13.692Z,4120
2018-11-22T11:43:43.759Z,4193
2018-11-22T11:44:13.560Z,4410
2018-11-22T11:44:43.599Z,4523
2018-11-22T11:45:13.652Z,4300
2018-11-22T11:45:43.654Z,4280
2018-11-22T11:46:13.661Z,4570
2018-11-22T11:46:43.763Z,4767
2018-11-22T11:47:13.701Z,4720
2018-11-22T11:47:43.748Z,4397
2018-11-22T11:48:13.789Z,3813
2018-11-22T11:48:43.794Z,3447
2018-11-22T11:49:13.801Z,3477
2018-11-22T11:49:43.817Z,3610
2018-11-22T11:50:13.842Z,3597
2018-11-22T11:50:43.926Z,3633
2018-11-22T11:51:13.874Z,3787
2018-11-22T11:51:43.915Z,3840
2018-11-22T11:52:13.914Z,3750
2018-11-22T11:52:43.983Z,3807
2018-11-22T11:53:13.969Z,3960
2018-11-22T11:53:43.997Z,3730
2018-11-22T11:54:14.004Z,3973
2018-11-22T11:54:44.025Z,4120
2018-11-22T11:55:14.083Z,4010
2018-11-22T11:55:44.099Z,3980
2018-11-22T11:56:14.090Z,3903
2018-11-22T11:56:44.165Z,3410
2018-11-22T11:57:14.136Z,3183
2018-11-22T11:57:44.142Z,3267
2018-11-22T11:58:14.172Z,3133
2018-11-22T11:58:44.269Z,3163
2018-11-22T11:59:14.208Z,3297
2018-11-22T11:59:44.266Z,3193
2018-11-22T12:00:14.274Z,3067
2018-11-22T12:00:44.262Z,3157
2018-11-22T12:01:14.310Z,3073
2018-11-22T12:01:44.316Z,3003
2018-11-22T12:02:15.337Z,3153
2018-11-22T12:02:44.371Z,3240
2018-11-22T12:03:14.388Z,3143
2018-11-22T12:03:44.411Z,2980
2018-11-22T12:04:14.422Z,3037
2018-11-22T12:04:44.437Z,3020
2018-11-22T12:05:14.452Z,3013
2018-11-22T12:05:44.490Z,2937
2018-11-22T12:06:14.488Z,3027
2018-11-22T12:06:44.566Z,2973
2018-11-22T12:07:14.547Z,2977
2018-11-22T12:07:44.555Z,2773
2018-11-22T12:08:14.564Z,2813
2018-11-22T12:08:44.608Z,2997
2018-11-22T12:09:14.566Z,3140
2018-11-22T12:09:44.679Z,3200
2018-11-22T12:10:14.609Z,3183
2018-11-22T12:10:44.682Z,3193
2018-11-22T12:11:14.674Z,3097
2018-11-22T12:11:44.810Z,3060
2018-11-22T12:12:14.720Z,3097
2018-11-22T12:12:44.761Z,3057
2018-11-22T12:13:14.750Z,3123
2018-11-22T12:13:44.802Z,3093
2018-11-22T12:14:14.782Z,3043
2018-11-22T12:14:44.850Z,2883
2018-11-22T12:15:14.881Z,2993
2018-11-22T12:16:14.900Z,2923
2018-11-22T12:16:44.953Z,2887
2018-11-22T12:17:14.923Z,2870
2018-11-22T12:17:45.964Z,2783
2018-11-22T12:18:15.955Z,2773
2018-11-22T12:18:45.949Z,2613
2018-11-22T12:19:16.029Z,2627
2018-11-22T12:19:46.072Z,2587
2018-11-22T12:20:16.079Z,2547
2018-11-22T12:20:46.146Z,2403
2018-11-22T12:21:16.097Z,2387
2018-11-22T12:21:46.150Z,2337
2018-11-22T12:22:16.105Z,2250
2018-11-22T12:22:46.171Z,2230
2018-11-22T12:23:16.186Z,2233
2018-11-22T12:23:46.212Z,2210
2018-11-22T12:24:16.197Z,2237
2018-11-22T12:24:46.200Z,2350
2018-11-22T12:25:16.245Z,2487
2018-11-22T12:25:46.276Z,2293
2018-11-22T12:26:16.279Z,2310
2018-11-22T12:26:46.284Z,2343
2018-11-22T12:27:16.298Z,2277
2018-11-22T12:27:46.358Z,2190
2018-11-22T12:28:16.409Z,2127
2018-11-22T12:28:46.423Z,2090
2018-11-22T12:29:16.431Z,2187
2018-11-22T12:29:46.435Z,2267
2018-11-22T12:30:16.422Z,2457
2018-11-22T12:30:46.463Z,2500
2018-11-22T12:31:16.432Z,2360
2018-11-22T12:31:46.496Z,2387
2018-11-22T12:32:16.507Z,2463
2018-11-22T12:32:46.564Z,2513
2018-11-22T12:33:16.560Z,2467
2018-11-22T12:33:46.548Z,2450
2018-11-22T12:34:16.542Z,2510
2018-11-22T12:34:46.563Z,2603
2018-11-22T12:35:16.585Z,2713
2018-11-22T12:35:46.685Z,2663
2018-11-22T12:36:16.615Z,2553
2018-11-22T12:36:46.697Z,2560
2018-11-22T12:37:46.712Z,2587
2018-11-22T12:38:16.694Z,2687
2018-11-22T12:38:46.739Z,2733
2018-11-22T12:39:16.741Z,2790
2018-11-22T12:39:46.753Z,2687
2018-11-22T12:40:16.765Z,2523
2018-11-22T12:40:47.830Z,2287
2018-11-22T12:41:17.840Z,2313
2018-11-22T12:41:47.847Z,2490
2018-11-22T12:42:17.898Z,2460
2018-11-22T12:42:47.854Z,2373
2018-11-22T12:43:17.914Z,2453
2018-11-22T12:43:47.952Z,2403
2018-11-22T12:44:17.966Z,2363
2018-11-22T12:44:47.996Z,2400
2018-11-22T12:45:18.017Z,2437
2018-11-22T12:45:48.782Z,2490
2018-11-22T12:46:18.054Z,2523
2018-11-22T12:46:48.073Z,2573
2018-11-22T12:47:18.092Z,2473
2018-11-22T12:47:48.149Z,2520
2018-11-22T12:48:18.161Z,2473
2018-11-22T12:48:48.175Z,2580
2018-11-22T12:49:18.101Z,2557
2018-11-22T12:49:48.206Z,2527
2018-11-22T12:50:18.155Z,2410
2018-11-22T12:50:48.275Z,2333
2018-11-22T12:51:18.249Z,2353
2018-11-22T12:51:48.295Z,2283
2018-11-22T12:52:18.262Z,2163
2018-11-22T12:52:48.323Z,2107
2018-11-22T12:53:18.274Z,2120
2018-11-22T12:53:48.356Z,2203
2018-11-22T12:54:18.356Z,2220
2018-11-22T12:54:48.406Z,2233
2018-11-22T12:55:18.398Z,2300
2018-11-22T12:55:48.395Z,2227
2018-11-22T12:56:18.441Z,2160
2018-11-22T12:56:48.516Z,2340
2018-11-22T12:57:18.777Z,2500
2018-11-22T12:57:48.510Z,2543
2018-11-22T12:58:48.573Z,2450
2018-11-22T12:59:18.578Z,2393
2018-11-22T12:59:48.588Z,2410
2018-11-22T13:00:18.544Z,2473
2018-11-22T13:00:48.627Z,2497
2018-11-22T13:01:18.624Z,2700
2018-11-22T13:01:48.637Z,2577
2018-11-22T13:02:18.739Z,2543
2018-11-22T13:02:48.728Z,2550
2018-11-22T13:03:18.656Z,2530
2018-11-22T13:03:48.765Z,2330
2018-11-22T13:04:18.778Z,2080
2018-11-22T13:04:48.809Z,2163
2018-11-22T13:05:18.770Z,2250
2018-11-22T13:05:48.830Z,2213
2018-11-22T13:06:18.796Z,2037
2018-11-22T13:06:48.896Z,2010
2018-11-22T13:07:18.864Z,1997
2018-11-22T13:07:48.836Z,1960
2018-11-22T13:08:18.877Z,1930
2018-11-22T13:08:48.945Z,1917
2018-11-22T13:09:18.943Z,1900
2018-11-22T13:09:48.989Z,1883
2018-11-22T13:10:18.987Z,1940
2018-11-22T13:10:49.042Z,2183
2018-11-22T13:11:18.958Z,2197
2018-11-22T13:11:49.079Z,2137
2018-11-22T13:12:19.033Z,2133
2018-11-22T13:12:49.072Z,2140
2018-11-22T13:13:19.071Z,2113
2018-11-22T13:13:49.139Z,1997
2018-11-22T13:14:19.095Z,1863
2018-11-22T13:14:49.334Z,1830
2018-11-22T13:15:19.105Z,1857
2018-11-22T13:15:49.225Z,1877
2018-11-22T13:16:19.315Z,1897
2018-11-22T13:16:49.301Z,1900
2018-11-22T13:17:19.193Z,1897
2018-11-22T13:17:49.267Z,1850
2018-11-22T13:18:19.504Z,1803
2018-11-22T13:18:49.259Z,1750
2018-11-22T13:19:19.288Z,1707
2018-11-22T13:19:49.351Z,1683
2018-11-22T13:20:19.361Z,1700
2018-11-22T13:20:49.472Z,1767
2018-11-22T13:21:19.374Z,1780
2018-11-22T13:21:49.426Z,1767
2018-11-22T13:22:19.451Z,1703
2018-11-22T13:22:49.449Z,1670
2018-11-22T13:23:19.453Z,1750
2018-11-22T13:23:49.517Z,2003
2018-11-22T13:24:19.480Z,2057
2018-11-22T13:24:49.515Z,2023